createdAt,value
2023-05-24T00:02:20.901Z,10.90
2023-05-24T00:04:49.524Z,10.80
2023-05-24T00:07:16.641Z,10.80
2023-05-24T00:09:43.584Z,10.80
2023-05-24T00:12:10.940Z,10.80
2023-05-24T00:14:37.954Z,10.80
2023-05-24T00:17:05.074Z,10.80
2023-05-24T00:19:31.973Z,10.80
2023-05-24T00:21:59.477Z,10.80
2023-05-24T00:24:26.382Z,10.80
2023-05-24T00:26:53.324Z,10.80
2023-05-24T00:29:20.471Z,10.70
2023-05-24T00:31:47.542Z,10.70
2023-05-24T00:34:14.482Z,10.70
2023-05-24T00:36:41.421Z,10.70
2023-05-24T00:39:08.397Z,10.80
2023-05-24T00:41:35.562Z,10.70
2023-05-24T00:44:03.470Z,10.80
2023-05-24T00:46:34.782Z,10.70
2023-05-24T00:49:01.995Z,10.70
2023-05-24T00:51:29.270Z,10.80
2023-05-24T00:53:56.555Z,10.80
2023-05-24T00:56:23.621Z,10.70
2023-05-24T00:58:54.811Z,10.70
2023-05-24T01:01:25.956Z,10.80
2023-05-24T01:03:54.439Z,10.70
2023-05-24T01:06:23.561Z,10.70
2023-05-24T01:09:37.914Z,10.70
2023-05-24T01:12:19.881Z,10.70
2023-05-24T01:14:58.207Z,10.70
2023-05-24T01:17:38.314Z,10.90
2023-05-24T01:20:10.183Z,10.90
2023-05-24T01:23:01.910Z,10.90
2023-05-24T01:26:23.206Z,10.80
2023-05-24T01:28:51.306Z,10.80
2023-05-24T01:31:19.773Z,10.70
2023-05-24T01:33:46.835Z,10.70
2023-05-24T01:36:13.866Z,10.80
2023-05-24T01:38:41.664Z,10.80
2023-05-24T01:41:34.740Z,10.80
2023-05-24T01:44:25.098Z,10.80
2023-05-24T01:47:02.699Z,10.80
2023-05-24T01:49:34.362Z,10.80
2023-05-24T01:52:05.426Z,10.80
2023-05-24T01:54:37.451Z,10.80
2023-05-24T01:57:07.975Z,10.80
2023-05-24T01:59:36.236Z,10.80
2023-05-24T02:02:03.237Z,10.90
2023-05-24T02:04:30.798Z,10.80
2023-05-24T02:06:57.787Z,10.80
2023-05-24T02:09:24.732Z,10.80
2023-05-24T02:11:51.651Z,10.90
2023-05-24T02:14:20.064Z,10.80
2023-05-24T02:16:47.758Z,10.80
2023-05-24T02:19:14.840Z,10.70
2023-05-24T02:21:41.931Z,10.70
2023-05-24T02:24:11.380Z,10.70
2023-05-24T02:26:39.070Z,10.80
2023-05-24T02:29:06.165Z,10.70
2023-05-24T02:31:33.218Z,10.70
2023-05-24T02:34:00.407Z,10.70
2023-05-24T02:36:27.598Z,10.60
2023-05-24T02:38:54.508Z,10.70
2023-05-24T02:41:22.153Z,10.70
2023-05-24T02:43:49.208Z,10.70
2023-05-24T02:46:16.332Z,10.60
2023-05-24T02:48:43.263Z,10.70
2023-05-24T02:51:10.163Z,10.60
2023-05-24T02:53:37.038Z,10.60
2023-05-24T02:56:04.121Z,10.70
2023-05-24T02:58:31.064Z,10.70
2023-05-24T03:00:58.007Z,10.60
2023-05-24T03:03:25.192Z,10.60
2023-05-24T03:05:52.155Z,10.60
2023-05-24T03:08:19.046Z,10.60
2023-05-24T03:10:46.021Z,10.60
2023-05-24T03:13:12.913Z,10.60
2023-05-24T03:15:39.854Z,10.60
2023-05-24T03:18:06.765Z,10.50
2023-05-24T03:20:34.150Z,10.50
2023-05-24T03:23:01.121Z,10.60
2023-05-24T03:25:28.086Z,10.60
2023-05-24T03:27:55.538Z,10.60
2023-05-24T03:30:22.470Z,10.60
2023-05-24T03:32:49.410Z,10.60
2023-05-24T03:35:16.353Z,10.60
2023-05-24T03:37:43.253Z,10.50
2023-05-24T03:40:10.438Z,10.60
2023-05-24T03:42:37.392Z,10.60
2023-05-24T03:45:05.296Z,10.60
2023-05-24T03:47:32.206Z,10.60
2023-05-24T03:49:59.165Z,10.60
2023-05-24T03:52:26.260Z,10.60
2023-05-24T03:54:53.231Z,10.60
2023-05-24T03:57:20.193Z,10.60
2023-05-24T03:59:47.135Z,10.70
2023-05-24T04:02:14.625Z,10.60
2023-05-24T04:04:41.849Z,10.60
2023-05-24T04:07:11.941Z,10.60
2023-05-24T04:09:38.882Z,10.70
2023-05-24T04:12:06.035Z,10.70
2023-05-24T04:14:32.995Z,10.70
2023-05-24T04:17:00.047Z,10.70
2023-05-24T04:19:27.008Z,10.70
2023-05-24T04:21:53.958Z,10.80
2023-05-24T04:24:20.949Z,10.80
2023-05-24T04:26:47.852Z,10.80
2023-05-24T04:29:14.943Z,10.80
2023-05-24T04:31:44.992Z,10.90
2023-05-24T04:34:14.304Z,10.90
2023-05-24T04:36:41.508Z,11.00
2023-05-24T04:39:08.579Z,10.90
2023-05-24T04:41:36.038Z,10.90
2023-05-24T04:44:03.038Z,11.00
2023-05-24T04:46:30.289Z,11.00
2023-05-24T04:48:57.238Z,11.00
2023-05-24T04:51:24.492Z,11.00
2023-05-24T04:53:51.380Z,11.00
2023-05-24T04:56:19.598Z,11.00
2023-05-24T04:58:46.645Z,11.10
2023-05-24T05:01:13.645Z,11.10
2023-05-24T05:03:40.901Z,11.00
2023-05-24T05:06:07.967Z,11.10
2023-05-24T05:08:34.958Z,11.10
2023-05-24T05:11:02.883Z,11.10
2023-05-24T05:13:29.879Z,11.30
2023-05-24T05:15:56.758Z,11.20
2023-05-24T05:18:23.664Z,11.20
2023-05-24T05:20:51.736Z,11.20
2023-05-24T05:23:18.814Z,11.20
2023-05-24T05:25:45.777Z,11.30
2023-05-24T05:28:12.738Z,11.30
2023-05-24T05:30:39.808Z,11.40
2023-05-24T05:33:07.044Z,11.40
2023-05-24T05:35:34.103Z,11.50
2023-05-24T05:38:01.006Z,11.70
2023-05-24T05:40:28.041Z,11.90
2023-05-24T05:42:55.098Z,12.10
2023-05-24T05:45:22.046Z,12.30
2023-05-24T05:47:49.046Z,12.40
2023-05-24T05:50:16.156Z,12.40
2023-05-24T05:52:43.100Z,12.40
2023-05-24T05:55:11.313Z,12.40
2023-05-24T05:57:38.356Z,12.40
2023-05-24T06:00:05.802Z,12.40
2023-05-24T06:02:32.839Z,12.50
2023-05-24T06:05:00.548Z,12.50
2023-05-24T06:07:27.576Z,12.50
2023-05-24T06:09:54.555Z,12.50
2023-05-24T06:12:21.478Z,12.40
2023-05-24T06:14:50.639Z,12.40
2023-05-24T06:17:18.631Z,12.50
2023-05-24T06:19:45.848Z,12.60
2023-05-24T06:22:12.788Z,12.60
2023-05-24T06:24:39.944Z,12.70
2023-05-24T06:27:06.869Z,12.80
2023-05-24T06:29:34.041Z,12.80
2023-05-24T06:32:01.425Z,12.80
2023-05-24T06:34:29.752Z,12.90
2023-05-24T06:36:56.713Z,12.90
2023-05-24T06:39:25.456Z,13.00
2023-05-24T06:41:53.822Z,13.30
2023-05-24T06:44:23.973Z,13.50
2023-05-24T06:46:52.469Z,13.60
2023-05-24T06:49:19.593Z,13.70
2023-05-24T06:51:48.981Z,13.80
2023-05-24T06:54:15.921Z,13.90
2023-05-24T06:56:42.805Z,13.80
2023-05-24T06:59:11.169Z,13.90
2023-05-24T07:01:39.865Z,13.90
2023-05-24T07:04:06.924Z,14.00
2023-05-24T07:06:34.263Z,14.00
2023-05-24T07:09:04.753Z,14.00
2023-05-24T07:11:32.340Z,14.00
2023-05-24T07:13:59.286Z,13.90
2023-05-24T07:16:26.317Z,13.70
2023-05-24T07:18:55.245Z,13.80
2023-05-24T07:21:22.569Z,13.90
2023-05-24T07:23:51.234Z,13.80
2023-05-24T07:26:18.230Z,13.80
2023-05-24T07:28:45.195Z,13.80
2023-05-24T07:31:12.200Z,13.70
2023-05-24T07:33:39.477Z,13.70
2023-05-24T07:36:07.218Z,13.70
2023-05-24T07:38:34.969Z,13.60
2023-05-24T07:41:06.400Z,13.50
2023-05-24T07:43:33.251Z,13.50
2023-05-24T07:46:00.246Z,13.60
2023-05-24T07:48:27.218Z,13.70
2023-05-24T07:50:55.017Z,13.90
2023-05-24T07:53:23.053Z,13.90
2023-05-24T07:55:50.949Z,14.00
2023-05-24T07:58:17.881Z,14.10
2023-05-24T08:00:45.202Z,14.30
2023-05-24T08:03:14.625Z,14.30
2023-05-24T08:05:42.032Z,14.40
2023-05-24T08:08:09.713Z,14.60
2023-05-24T08:10:36.786Z,15.00
2023-05-24T08:13:05.181Z,15.50
2023-05-24T08:15:32.115Z,15.90
2023-05-24T08:17:59.191Z,16.20
2023-05-24T08:20:26.184Z,16.50
2023-05-24T08:22:53.602Z,16.70
2023-05-24T08:25:21.052Z,17.40
2023-05-24T08:27:48.067Z,18.00
2023-05-24T08:30:15.036Z,19.00
2023-05-24T08:32:42.045Z,19.30
2023-05-24T08:35:20.434Z,19.00
2023-05-24T08:37:49.436Z,18.40
2023-05-24T08:40:17.099Z,18.00
2023-05-24T08:42:46.037Z,18.50
2023-05-24T08:45:18.382Z,18.50
2023-05-24T08:47:46.640Z,18.40
2023-05-24T08:50:14.017Z,19.10
2023-05-24T08:52:42.624Z,20.00
2023-05-24T08:55:11.101Z,19.80
2023-05-24T08:57:40.139Z,19.00
2023-05-24T09:00:12.745Z,18.30
2023-05-24T09:02:42.239Z,17.70
2023-05-24T09:05:16.785Z,17.90
2023-05-24T09:07:45.669Z,18.70
2023-05-24T09:10:12.967Z,19.50
2023-05-24T09:12:42.657Z,20.20
2023-05-24T09:15:09.921Z,19.80
2023-05-24T09:17:38.157Z,19.20
2023-05-24T09:20:09.053Z,19.10
2023-05-24T09:22:42.078Z,19.20
2023-05-24T09:25:11.412Z,19.00
2023-05-24T09:27:38.950Z,19.80
2023-05-24T09:30:10.670Z,20.70
2023-05-24T09:32:38.112Z,20.60
2023-05-24T09:35:09.448Z,20.20
2023-05-24T09:37:38.739Z,19.90
2023-05-24T09:40:07.280Z,20.40
2023-05-24T09:42:34.482Z,21.10
2023-05-24T09:45:02.672Z,21.60
2023-05-24T09:47:33.504Z,21.50
2023-05-24T09:50:01.565Z,20.80
2023-05-24T09:52:28.830Z,20.40
2023-05-24T09:54:55.756Z,20.50
2023-05-24T09:57:23.016Z,21.30
2023-05-24T09:59:50.711Z,22.20
2023-05-24T10:02:20.421Z,21.90
2023-05-24T10:04:48.008Z,22.20
2023-05-24T10:07:16.426Z,21.90
2023-05-24T10:09:45.792Z,21.30
2023-05-24T10:12:12.686Z,21.20
2023-05-24T10:14:39.795Z,22.00
2023-05-24T10:17:07.829Z,22.70
2023-05-24T10:19:36.154Z,23.20
2023-05-24T10:22:10.539Z,23.60
2023-05-24T10:24:42.667Z,22.60
2023-05-24T10:27:14.149Z,21.60
2023-05-24T10:29:47.046Z,21.50
2023-05-24T10:32:16.791Z,21.00
2023-05-24T10:34:44.709Z,20.20
2023-05-24T10:37:11.821Z,20.40
2023-05-24T10:39:38.860Z,20.90
2023-05-24T10:42:09.599Z,21.90
2023-05-24T10:44:37.301Z,21.70
2023-05-24T10:47:10.011Z,21.70
2023-05-24T10:49:39.726Z,22.00
2023-05-24T10:52:10.693Z,22.00
2023-05-24T10:54:39.950Z,22.30
2023-05-24T10:57:09.893Z,22.00
2023-05-24T10:59:39.240Z,22.00
2023-05-24T11:02:16.579Z,21.70
2023-05-24T11:04:46.924Z,21.60
2023-05-24T11:07:15.428Z,21.80
2023-05-24T11:10:03.153Z,21.50
2023-05-24T11:12:38.473Z,22.00
2023-05-24T11:15:09.836Z,22.50
2023-05-24T11:18:14.279Z,22.20
2023-05-24T11:20:48.306Z,21.40
2023-05-24T11:23:16.817Z,20.90
2023-05-24T11:25:45.182Z,20.70
2023-05-24T11:28:13.831Z,21.40
2023-05-24T11:30:46.110Z,22.20
2023-05-24T11:33:20.112Z,23.00
2023-05-24T11:35:47.566Z,22.10
2023-05-24T11:38:16.394Z,21.30
2023-05-24T11:40:45.313Z,20.50
2023-05-24T11:43:20.120Z,20.10
2023-05-24T11:45:49.372Z,20.00
2023-05-24T11:48:17.296Z,20.20
2023-05-24T11:50:49.703Z,20.50
2023-05-24T11:53:22.891Z,20.80
2023-05-24T11:55:49.976Z,21.30
2023-05-24T11:58:16.900Z,21.50
2023-05-24T12:00:44.099Z,21.80
2023-05-24T12:03:11.259Z,21.70
2023-05-24T12:05:38.375Z,22.00
2023-05-24T12:08:12.331Z,22.30
2023-05-24T12:10:41.019Z,22.50
2023-05-24T12:13:23.549Z,22.20
2023-05-24T12:15:59.480Z,22.30
2023-05-24T12:18:26.768Z,22.60
2023-05-24T12:20:54.146Z,22.90
2023-05-24T12:23:28.586Z,22.90
2023-05-24T12:26:04.774Z,22.30
2023-05-24T12:28:39.165Z,21.40
2023-05-24T12:31:06.664Z,20.90
2023-05-24T12:33:34.247Z,21.20
2023-05-24T12:36:01.436Z,21.10
2023-05-24T12:38:28.624Z,21.70
2023-05-24T12:41:11.539Z,21.80
2023-05-24T12:43:40.954Z,21.90
2023-05-24T12:46:07.897Z,21.80
2023-05-24T12:48:35.270Z,21.60
2023-05-24T12:51:03.177Z,20.90
2023-05-24T12:53:30.053Z,20.50
2023-05-24T12:55:57.154Z,20.10
2023-05-24T12:58:24.173Z,20.30
2023-05-24T13:00:52.067Z,20.50
2023-05-24T13:03:19.014Z,20.90
2023-05-24T13:05:47.299Z,20.70
2023-05-24T13:08:14.736Z,20.70
2023-05-24T13:10:42.050Z,21.20
2023-05-24T13:13:09.236Z,21.50
2023-05-24T13:15:37.859Z,21.50
2023-05-24T13:18:05.121Z,21.80
2023-05-24T13:20:32.265Z,21.90
2023-05-24T13:22:59.204Z,21.80
2023-05-24T13:25:26.733Z,21.90
2023-05-24T13:27:53.764Z,22.00
2023-05-24T13:30:27.569Z,21.90
2023-05-24T13:32:55.684Z,21.10
2023-05-24T13:35:22.692Z,21.30
2023-05-24T13:37:49.707Z,21.40
2023-05-24T13:40:17.060Z,21.30
2023-05-24T13:42:44.092Z,21.40
2023-05-24T13:45:12.170Z,21.50
2023-05-24T13:47:40.858Z,21.20
2023-05-24T13:50:08.826Z,21.40
2023-05-24T13:52:35.790Z,21.60
2023-05-24T13:55:06.617Z,21.90
2023-05-24T13:57:49.549Z,22.00
2023-05-24T14:00:18.769Z,22.10
2023-05-24T14:02:46.090Z,22.40
2023-05-24T14:05:26.787Z,22.80
2023-05-24T14:07:56.285Z,23.00
2023-05-24T14:10:23.817Z,22.70
2023-05-24T14:13:03.559Z,22.70
2023-05-24T14:15:38.274Z,22.70
2023-05-24T14:18:08.212Z,22.20
2023-05-24T14:20:38.213Z,22.10
2023-05-24T14:23:07.065Z,22.40
2023-05-24T14:25:34.399Z,22.20
2023-05-24T14:28:01.763Z,22.10
2023-05-24T14:30:28.716Z,22.10
2023-05-24T14:32:55.759Z,22.10
2023-05-24T14:35:22.770Z,22.00
2023-05-24T14:37:49.760Z,22.10
2023-05-24T14:40:19.148Z,22.20
2023-05-24T14:42:47.051Z,22.00
2023-05-24T14:45:14.139Z,22.20
2023-05-24T14:47:41.108Z,22.10
2023-05-24T14:50:08.542Z,22.30
2023-05-24T14:52:35.499Z,22.50
2023-05-24T14:55:02.844Z,22.40
2023-05-24T14:57:29.834Z,22.30
2023-05-24T14:59:56.756Z,21.80
2023-05-24T15:02:23.864Z,21.30
2023-05-24T15:04:51.013Z,21.10
2023-05-24T15:07:18.018Z,21.10
2023-05-24T15:09:44.904Z,21.00
2023-05-24T15:12:12.017Z,20.90
2023-05-24T15:14:38.909Z,21.00
2023-05-24T15:17:05.950Z,20.90
2023-05-24T15:19:32.869Z,20.70
2023-05-24T15:22:00.013Z,20.50
2023-05-24T15:24:27.094Z,20.50
2023-05-24T15:26:54.116Z,20.50
2023-05-24T15:29:21.470Z,20.70
2023-05-24T15:31:48.620Z,20.70
2023-05-24T15:34:15.877Z,20.70
2023-05-24T15:36:45.321Z,20.60
2023-05-24T15:39:12.431Z,20.50
2023-05-24T15:41:39.495Z,20.50
2023-05-24T15:44:09.477Z,20.20
2023-05-24T15:46:36.748Z,20.40
2023-05-24T15:49:03.866Z,20.30
2023-05-24T15:54:01.138Z,20.40
2023-05-24T15:56:28.486Z,20.50
2023-05-24T15:58:55.482Z,20.40
2023-05-24T16:01:22.463Z,20.10
2023-05-24T16:03:49.512Z,19.70
2023-05-24T16:06:16.693Z,19.60
2023-05-24T16:08:43.629Z,19.60
2023-05-24T16:11:10.656Z,19.60
2023-05-24T16:13:37.527Z,19.70
2023-05-24T16:16:04.731Z,19.70
2023-05-24T16:18:34.602Z,19.70
2023-05-24T16:21:01.722Z,19.90
2023-05-24T16:23:28.725Z,19.90
2023-05-24T16:25:55.656Z,19.90
2023-05-24T16:28:24.943Z,19.70
2023-05-24T16:30:55.727Z,19.50
2023-05-24T16:33:24.532Z,19.40
2023-05-24T16:35:55.786Z,19.20
2023-05-24T16:38:26.461Z,19.10
2023-05-24T16:40:53.893Z,19.00
2023-05-24T16:43:21.685Z,18.80
2023-05-24T16:45:48.744Z,18.80
2023-05-24T16:48:15.866Z,18.90
2023-05-24T16:50:43.208Z,18.90
2023-05-24T16:53:10.333Z,18.80
2023-05-24T16:55:37.299Z,18.80
2023-05-24T16:58:04.327Z,18.80
2023-05-24T17:00:31.377Z,18.80
2023-05-24T17:03:00.387Z,19.10
2023-05-24T17:05:27.816Z,19.20
2023-05-24T17:07:56.010Z,19.10
2023-05-24T17:10:22.889Z,19.10
2023-05-24T17:12:50.092Z,19.10
2023-05-24T17:15:17.091Z,19.10
2023-05-24T17:17:44.078Z,19.30
2023-05-24T17:20:13.008Z,19.40
2023-05-24T17:22:40.092Z,19.30
2023-05-24T17:25:07.594Z,19.00
2023-05-24T17:27:34.549Z,19.00
2023-05-24T17:30:01.692Z,18.90
2023-05-24T17:32:28.733Z,18.90
2023-05-24T17:34:55.741Z,18.90
2023-05-24T17:37:22.881Z,18.90
2023-05-24T17:39:52.308Z,18.80
2023-05-24T17:42:19.789Z,18.60
2023-05-24T17:44:47.503Z,18.50
2023-05-24T17:47:14.478Z,18.40
2023-05-24T17:49:41.835Z,18.30
2023-05-24T17:52:08.712Z,18.30
2023-05-24T17:54:35.732Z,18.40
2023-05-24T17:57:03.042Z,18.30
2023-05-24T17:59:29.978Z,18.30
2023-05-24T18:01:56.901Z,18.30
2023-05-24T18:04:23.775Z,18.30
2023-05-24T18:06:50.686Z,18.40
2023-05-24T18:09:17.589Z,18.30
2023-05-24T18:11:44.488Z,18.10
2023-05-24T18:14:11.531Z,18.00
2023-05-24T18:16:38.483Z,17.90
2023-05-24T18:19:05.702Z,17.70
2023-05-24T18:21:32.782Z,17.50
2023-05-24T18:23:59.679Z,17.20
2023-05-24T18:26:27.345Z,17.20
2023-05-24T18:28:54.603Z,17.00
2023-05-24T18:31:22.041Z,16.90
2023-05-24T18:33:49.149Z,16.80
2023-05-24T18:36:16.589Z,16.70
2023-05-24T18:38:47.137Z,16.60
2023-05-24T18:41:15.075Z,16.40
2023-05-24T18:43:43.190Z,16.30
2023-05-24T18:46:14.814Z,16.30
2023-05-24T18:48:42.320Z,16.10
2023-05-24T18:51:09.237Z,16.10
2023-05-24T18:53:36.513Z,16.10
2023-05-24T18:56:03.512Z,15.90
2023-05-24T18:58:30.982Z,15.80
2023-05-24T19:00:57.904Z,15.70
2023-05-24T19:03:25.214Z,15.50
2023-05-24T19:05:52.193Z,15.40
2023-05-24T19:08:19.113Z,15.40
2023-05-24T19:10:46.102Z,15.30
2023-05-24T19:13:13.067Z,15.20
2023-05-24T19:15:40.002Z,15.10
2023-05-24T19:18:06.940Z,14.90
2023-05-24T19:20:34.093Z,14.90
2023-05-24T19:23:01.138Z,14.80
2023-05-24T19:25:28.729Z,14.80
2023-05-24T19:28:00.071Z,14.70
2023-05-24T19:30:28.086Z,14.70
2023-05-24T19:32:55.088Z,14.60
2023-05-24T19:35:22.279Z,14.60
2023-05-24T19:37:49.219Z,14.60
2023-05-24T19:40:16.465Z,14.60
2023-05-24T19:42:43.310Z,14.50
2023-05-24T19:45:12.058Z,14.50
2023-05-24T19:47:39.761Z,14.50
2023-05-24T19:50:07.588Z,14.50
2023-05-24T19:52:34.452Z,14.50
2023-05-24T19:55:01.434Z,14.50
2023-05-24T19:57:28.374Z,14.50
2023-05-24T19:59:55.534Z,14.50
2023-05-24T20:02:22.540Z,14.50
2023-05-24T20:04:49.551Z,14.50
2023-05-24T20:07:16.493Z,14.40
2023-05-24T20:09:43.405Z,14.40
2023-05-24T20:12:11.114Z,14.30
2023-05-24T20:14:38.061Z,14.20
2023-05-24T20:17:05.462Z,14.00
2023-05-24T20:19:32.313Z,13.90
2023-05-24T20:21:59.635Z,13.90
2023-05-24T20:24:26.540Z,13.90
2023-05-24T20:26:53.414Z,13.90
2023-05-24T20:29:20.316Z,13.80
2023-05-24T20:31:47.329Z,13.70
2023-05-24T20:34:14.253Z,13.60
2023-05-24T20:36:43.547Z,13.50
2023-05-24T20:39:10.816Z,13.40
2023-05-24T20:41:37.722Z,13.40
2023-05-24T20:44:04.756Z,13.40
2023-05-24T20:46:32.043Z,13.30
2023-05-24T20:48:59.172Z,13.20
2023-05-24T20:51:26.229Z,13.10
2023-05-24T20:53:53.430Z,13.00
2023-05-24T20:56:22.985Z,12.90
2023-05-24T20:58:52.991Z,12.90
2023-05-24T21:01:21.209Z,12.90
2023-05-24T21:03:48.412Z,12.80
2023-05-24T21:06:15.683Z,12.80
2023-05-24T21:08:43.338Z,12.70
2023-05-24T21:11:10.601Z,12.70
2023-05-24T21:13:37.702Z,12.70
2023-05-24T21:16:04.896Z,12.80
2023-05-24T21:18:33.360Z,12.70
2023-05-24T21:21:00.440Z,12.70
2023-05-24T21:23:27.845Z,12.80
2023-05-24T21:25:54.824Z,12.70
2023-05-24T21:28:21.731Z,12.70
2023-05-24T21:30:48.706Z,12.70
2023-05-24T21:33:16.487Z,12.70
2023-05-24T21:35:43.850Z,12.60
2023-05-24T21:38:11.095Z,12.60
2023-05-24T21:40:38.065Z,12.60
2023-05-24T21:43:05.514Z,12.50
2023-05-24T21:45:32.468Z,12.50
2023-05-24T21:47:59.544Z,12.50
2023-05-24T21:50:26.619Z,12.50
2023-05-24T21:52:53.551Z,12.40
2023-05-24T21:55:20.905Z,12.50
2023-05-24T21:57:47.882Z,12.40
2023-05-24T22:00:15.351Z,12.30
2023-05-24T22:02:42.606Z,12.30
2023-05-24T22:05:09.690Z,12.20
2023-05-24T22:07:37.577Z,12.10
2023-05-24T22:10:06.253Z,12.20
2023-05-24T22:12:33.911Z,12.10
2023-05-24T22:15:01.768Z,12.20
2023-05-24T22:17:33.086Z,12.20
2023-05-24T22:20:01.405Z,12.10
2023-05-24T22:22:29.842Z,12.00
2023-05-24T22:24:56.873Z,12.00
2023-05-24T22:27:24.077Z,12.00
2023-05-24T22:29:51.152Z,12.00
2023-05-24T22:32:18.174Z,12.10
2023-05-24T22:34:45.147Z,12.10
2023-05-24T22:37:12.136Z,12.00
2023-05-24T22:39:39.499Z,12.10
2023-05-24T22:42:06.426Z,12.00
2023-05-24T22:44:33.543Z,12.00
2023-05-24T22:47:01.981Z,12.00
2023-05-24T22:49:29.683Z,12.00
2023-05-24T22:51:56.808Z,12.00
2023-05-24T22:54:23.762Z,12.00
2023-05-24T22:56:50.701Z,12.10
2023-05-24T22:59:17.626Z,12.10
2023-05-24T23:01:44.955Z,12.10
2023-05-24T23:04:21.072Z,12.00
2023-05-24T23:06:52.378Z,12.00
2023-05-24T23:09:29.272Z,12.00
2023-05-24T23:11:58.348Z,12.00
2023-05-24T23:14:25.595Z,12.00
2023-05-24T23:16:52.582Z,11.90
2023-05-24T23:19:19.506Z,12.00
2023-05-24T23:21:46.650Z,12.00
2023-05-24T23:24:16.582Z,12.00
2023-05-24T23:26:43.815Z,12.00
2023-05-24T23:29:11.310Z,12.00
2023-05-24T23:31:38.336Z,12.00
2023-05-24T23:34:05.842Z,12.00
2023-05-24T23:36:32.974Z,11.90
2023-05-24T23:38:59.915Z,11.90
2023-05-24T23:41:27.350Z,11.90
2023-05-24T23:43:54.352Z,12.00
2023-05-24T23:46:21.306Z,12.00
2023-05-24T23:48:48.335Z,12.00
2023-05-24T23:51:15.322Z,11.90
2023-05-24T23:53:42.324Z,11.90
2023-05-24T23:56:09.308Z,11.80
2023-05-24T23:58:37.752Z,11.90
